Pagina principale
METAR-TAF:

METAR-TAF

Aeroporti :

Meiringen, Svizzera

latitudine: 46-44-25N, longitudine: 8-06-36E, altezza: 577 m

Osservazione

Il bollettino è stato emesso 50 minuti fa, alle 19:50 UTC
Vento calmo
Temperature 12°C
Umidità 100%
Pressione 1014 hPa
Visibilità 10 km o più
Nuvoloso ad un'altezza di 5200 ft
Nuvoloso ad un'altezza di 5900 ft
pioggia

METAR: LSMM 251950Z AUTO 00000KT 9999NDV RA BKN052 BKN059 12/12 Q1014 RMK

Ora: 22:40 (20:40 UTC)


TAF: mancante

Osservazioni e previsioni meteorologiche di più di 4000 aeroporti (messaggi METAR e TAF).

Le stazioni disponibili sono rappresentate dai dischi gialli e rossi sulla carta.

Puntare il mouse per vedere il nome della stazione.

Clicca sopra per visualizzare le osservazioni e previsioni meteorologiche.

Per cambiare la mappa : fare clic sui pulsanti verdi con una croce nera per ingrandire, il pulsante verde con un trattino per diminuire, o sulla freccia verde per le mappe adiacenti.


METAR-TAF: